Time;durP1;ratioP1;P1;durP2;ratioP2;P2;SDS_P1;SDS_P2;PMS_P1;PMS_P2;Temp;Humidity;BMP_temperature;BMP_pressure;BME280_temperature;BME280_humidity;BME280_pressure;Samples;Min_cycle;Max_cycle;Signal;HPM_P1;HPM_P2
2023/06/27 00:00:34;;;;;;;;;;;;;;;;;;5091403;28;20432;-69
2023/06/27 00:03:00;;;;;;;;;;;;;;;;;;5090870;28;20327;-69
2023/06/27 00:05:26;;;;;;;;;;;;;;;;;;5090231;28;19915;-69
2023/06/27 00:09:11;;;;;;;;;;;;;;;;;;5111757;27;19912;-69
2023/06/27 00:17:47;;;;;;;;;;;;;;;;;;5091121;28;19917;-69
2023/06/27 00:20:14;;;;;;;;;;;;;;;;;;5091644;28;19919;-69
2023/06/27 00:23:01;;;;;;;;;;;;;;;;;;5091299;27;20313;-70
2023/06/27 00:30:58;;;;;;;;;;;;;;;;;;5091137;27;19916;-69
2023/06/27 00:33:24;;;;;;;;;;;;;;;;;;5091702;28;20011;-69
2023/06/27 00:35:49;;;;;;;;;;;;;;;;;;5091622;28;20289;-69
2023/06/27 00:40:08;;;;;;;;;;;;;;;;;;5112358;27;19916;-69
2023/06/27 00:42:34;;;;;;;;;;;;;;;;;;5111735;28;20376;-69
2023/06/27 00:45:00;;;;;;;;;;;;;;;;;;5111324;28;19915;-69
2023/06/27 00:47:26;;;;;;;;;;;;;;;;;;5111752;28;19915;-68
2023/06/27 00:49:52;;;;;;;;;;;;;;;;;;5111874;28;19908;-69
2023/06/27 00:52:18;;;;;;;;;;;;;;;;;;5111525;28;19912;-69
2023/06/27 00:57:27;;;;;;;;;;;;;;;;;;5091662;27;19917;-69
2023/06/27 00:59:53;;;;;;;;;;;;;;;;;;5090991;28;20383;-69
2023/06/27 01:04:15;;;;;;;;;;;;;;;;;;5174197;27;20320;-69
2023/06/27 01:10:18;;;;;;;;;;;;;;;;;;5071397;28;19917;-69
2023/06/27 01:12:44;;;;;;;;;;;;;;;;;;5070771;28;19995;-69
2023/06/27 01:15:10;;;;;;;;;;;;;;;;;;5071120;28;19909;-69
2023/06/27 01:25:12;;;;;;;;;;;;;;;;;;5112327;27;19916;-68
2023/06/27 01:27:38;;;;;;;;;;;;;;;;;;5111346;28;19912;-69
2023/06/27 01:31:35;;;;;;;;;;;;;;;;;;5092016;27;20291;-69
2023/06/27 01:34:01;;;;;;;;;;;;;;;;;;5091076;28;19999;-69
2023/06/27 01:36:27;;;;;;;;;;;;;;;;;;5091414;28;19909;-69
2023/06/27 01:38:53;;;;;;;;;;;;;;;;;;5091322;28;19908;-69
2023/06/27 01:41:20;;;;;;;;;;;;;;;;;;5090991;28;19909;-69
2023/06/27 01:45:19;;;;;;;;;;;;;;;;;;5091432;27;19916;-69
2023/06/27 01:47:45;;;;;;;;;;;;;;;;;;5091157;28;19962;-69
2023/06/27 01:50:11;;;;;;;;;;;;;;;;;;5091264;28;19909;-69
2023/06/27 01:55:35;;;;;;;;;;;;;;;;;;5071123;28;19938;-69
2023/06/27 01:58:01;;;;;;;;;;;;;;;;;;5071303;28;20435;-69
2023/06/27 02:00:27;;;;;;;;;;;;;;;;;;5071100;28;19909;-69
2023/06/27 02:04:19;;;;;;;;;;;;;;;;;;5153017;27;20002;-69
2023/06/27 02:06:45;;;;;;;;;;;;;;;;;;5153078;27;19950;-70
2023/06/27 02:09:11;;;;;;;;;;;;;;;;;;5152706;27;19907;-69
2023/06/27 02:11:37;;;;;;;;;;;;;;;;;;5153147;27;20294;-70
2023/06/27 02:17:30;;;;;;;;;;;;;;;;;;5091493;27;19917;-70
2023/06/27 02:24:51;;;;;;;;;;;;;;;;;;5112030;27;19916;-69
2023/06/27 02:28:44;;;;;;;;;;;;;;;;;;5091631;27;19916;-69
2023/06/27 02:34:04;;;;;;;;;;;;;;;;;;5091371;27;19917;-69
2023/06/27 02:39:20;;;;;;;;;;;;;;;;;;5132545;27;19922;-68
2023/06/27 02:41:46;;;;;;;;;;;;;;;;;;5132782;28;20002;-69
2023/06/27 02:44:12;;;;;;;;;;;;;;;;;;5131863;28;19914;-69
2023/06/27 02:46:38;;;;;;;;;;;;;;;;;;5132124;28;19958;-69
2023/06/27 02:57:07;;;;;;;;;;;;;;;;;;5091379;27;19922;-69
2023/06/27 02:59:33;;;;;;;;;;;;;;;;;;5090884;28;20007;-69
2023/06/27 03:04:13;;;;;;;;;;;;;;;;;;5111781;27;19922;-69
2023/06/27 03:06:39;;;;;;;;;;;;;;;;;;5111301;28;20283;-69
2023/06/27 03:09:05;;;;;;;;;;;;;;;;;;5111748;28;19994;-69
2023/06/27 03:11:31;;;;;;;;;;;;;;;;;;5111352;28;19908;-69
2023/06/27 03:13:57;;;;;;;;;;;;;;;;;;5111526;28;19949;-69
2023/06/27 03:16:23;;;;;;;;;;;;;;;;;;5111892;28;19916;-69
2023/06/27 03:18:49;;;;;;;;;;;;;;;;;;5111041;28;19995;-70
2023/06/27 03:22:09;;;;;;;;;;;;;;;;;;5091532;28;19916;-69
2023/06/27 03:27:00;;;;;;;;;;;;;;;;;;5111647;27;19912;-69
2023/06/27 03:29:26;;;;;;;;;;;;;;;;;;5111962;28;19912;-69
2023/06/27 03:31:52;;;;;;;;;;;;;;;;;;5111718;28;20274;-69
2023/06/27 03:37:57;;;;;;;;;;;;;;;;;;5091819;27;19916;-69
2023/06/27 03:40:23;;;;;;;;;;;;;;;;;;5090952;28;20449;-69
2023/06/27 03:43:32;;;;;;;;;;;;;;;;;;5153097;27;20431;-69
2023/06/27 03:45:58;;;;;;;;;;;;;;;;;;5152881;27;19946;-69
2023/06/27 03:48:24;;;;;;;;;;;;;;;;;;5152742;27;19907;-69
2023/06/27 03:50:50;;;;;;;;;;;;;;;;;;5153268;27;20310;-68
2023/06/27 03:53:16;;;;;;;;;;;;;;;;;;5152777;27;20364;-68
2023/06/27 03:55:42;;;;;;;;;;;;;;;;;;5152365;27;19907;-69
2023/06/27 04:00:24;;;;;;;;;;;;;;;;;;5111915;27;20295;-68
2023/06/27 04:02:50;;;;;;;;;;;;;;;;;;5111460;28;20003;-69
2023/06/27 04:05:16;;;;;;;;;;;;;;;;;;5111693;28;20336;-69
2023/06/27 04:09:07;;;;;;;;;;;;;;;;;;5091366;27;19916;-69
2023/06/27 04:11:33;;;;;;;;;;;;;;;;;;5091479;28;20276;-68
2023/06/27 04:14:55;;;;;;;;;;;;;;;;;;5091629;28;19916;-69
2023/06/27 04:17:21;;;;;;;;;;;;;;;;;;5091530;28;20002;-69
2023/06/27 04:19:47;;;;;;;;;;;;;;;;;;5091255;28;19961;-68
2023/06/27 04:22:13;;;;;;;;;;;;;;;;;;5090967;28;19938;-69
2023/06/27 04:25:34;;;;;;;;;;;;;;;;;;5091428;27;19922;-69
2023/06/27 04:28:00;;;;;;;;;;;;;;;;;;5091345;28;20003;-69
2023/06/27 04:30:26;;;;;;;;;;;;;;;;;;5090889;28;19912;-69
2023/06/27 04:35:28;;;;;;;;;;;;;;;;;;5092260;27;19916;-69
2023/06/27 04:37:54;;;;;;;;;;;;;;;;;;5090975;28;20011;-69
2023/06/27 04:43:35;;;;;;;;;;;;;;;;;;5111400;27;19916;-68
2023/06/27 04:46:01;;;;;;;;;;;;;;;;;;5111800;28;20011;-69
2023/06/27 04:48:27;;;;;;;;;;;;;;;;;;5111640;28;19961;-69
2023/06/27 04:50:53;;;;;;;;;;;;;;;;;;5111220;28;19915;-69
2023/06/27 04:54:07;;;;;;;;;;;;;;;;;;5112387;27;19916;-69
2023/06/27 04:56:35;;;;;;;;;;;;;;;;;;5111988;28;20006;-69
2023/06/27 05:01:09;;;;;;;;;;;;;;;;;;5111922;27;20306;-69
2023/06/27 05:06:24;;;;;;;;;;;;;;;;;;5111607;27;19912;-69
2023/06/27 05:08:50;;;;;;;;;;;;;;;;;;5112037;28;20011;-69
2023/06/27 05:11:16;;;;;;;;;;;;;;;;;;5111442;28;19961;-69
2023/06/27 05:13:42;;;;;;;;;;;;;;;;;;5111598;28;19919;-69
2023/06/27 05:16:08;;;;;;;;;;;;;;;;;;5111785;28;20329;-69
2023/06/27 05:18:34;;;;;;;;;;;;;;;;;;5111271;28;19961;-69
2023/06/27 05:27:03;;;;;;;;;;;;;;;;;;5171707;27;19921;-68
2023/06/27 05:29:29;;;;;;;;;;;;;;;;;;5170422;27;19918;-68
2023/06/27 05:34:04;;;;;;;;;;;;;;;;;;5111779;27;19927;-68
2023/06/27 05:38:45;;;;;;;;;;;;;;;;;;5112186;27;19916;-69
2023/06/27 05:43:09;;;;;;;;;;;;;;;;;;5111927;27;19916;-69
2023/06/27 05:48:55;;;;;;;;;;;;;;;;;;5090726;27;19931;-70
2023/06/27 05:51:51;;;;;;;;;;;;;;;;;;5083447;27;19943;-67
2023/06/27 05:54:17;;;;;;;;;;;;;;;;;;5090562;28;20367;-69
2023/06/27 05:57:26;;;;;;;;;;;;;;;;;;5093348;27;19920;-70
2023/06/27 05:59:52;;;;;;;;;;;;;;;;;;5094736;28;20011;-70
2023/06/27 06:02:18;;;;;;;;;;;;;;;;;;5090522;28;19912;-69
2023/06/27 06:05:58;;;;;;;;;;;;;;;;;;5090064;27;19923;-69
2023/06/27 06:08:40;;;;;;;;;;;;;;;;;;5110597;27;20360;-71
2023/06/27 06:19:25;;;;;;;;;;;;;;;;;;5089162;28;20022;-72
2023/06/27 06:24:02;;;;;;;;;;;;;;;;;;5108784;27;19935;-72
2023/06/27 06:26:27;;;;;;;;;;;;;;;;;;5107304;28;19911;-69
2023/06/27 06:29:41;;;;;;;;;;;;;;;;;;5170496;27;20005;-70
2023/06/27 06:32:07;;;;;;;;;;;;;;;;;;5157733;27;20367;-70
2023/06/27 06:34:33;;;;;;;;;;;;;;;;;;5162004;27;19960;-69
2023/06/27 06:36:59;;;;;;;;;;;;;;;;;;5149758;27;20229;-68
2023/06/27 06:40:19;;;;;;;;;;;;;;;;;;5125697;27;19916;-68
2023/06/27 06:42:50;;;;;;;;;;;;;;;;;;5109967;28;20727;-68
2023/06/27 06:45:16;;;;;;;;;;;;;;;;;;5111191;28;19908;-68
2023/06/27 06:47:41;;;;;;;;;;;;;;;;;;5110897;28;19969;-69
2023/06/27 06:50:07;;;;;;;;;;;;;;;;;;5110415;28;19916;-66
2023/06/27 06:52:33;;;;;;;;;;;;;;;;;;5105880;28;19912;-66
2023/06/27 06:54:59;;;;;;;;;;;;;;;;;;5108435;28;19951;-66
2023/06/27 06:57:25;;;;;;;;;;;;;;;;;;5109971;28;19919;-66
2023/06/27 07:00:39;;;;;;;;;;;;;;;;;;5067570;28;19920;-66
2023/06/27 07:03:11;;;;;;;;;;;;;;;;;;5050106;28;19913;-69
2023/06/27 07:05:37;;;;;;;;;;;;;;;;;;5047880;28;19925;-65
2023/06/27 07:14:49;;;;;;;;;;;;;;;;;;5131015;27;19920;-65
2023/06/27 07:17:15;;;;;;;;;;;;;;;;;;5113224;28;19923;-65
2023/06/27 07:20:33;;;;;;;;;;;;;;;;;;5067208;28;20399;-65
2023/06/27 07:22:59;;;;;;;;;;;;;;;;;;5068463;28;20343;-65
2023/06/27 07:27:17;;;;;;;;;;;;;;;;;;5133964;27;19923;-67
2023/06/27 07:29:43;;;;;;;;;;;;;;;;;;5129248;28;19912;-67
2023/06/27 07:32:57;;;;;;;;;;;;;;;;;;5130562;27;19916;-66
2023/06/27 07:38:24;;;;;;;;;;;;;;;;;;5149439;27;19988;-66
2023/06/27 07:42:25;;;;;;;;;;;;;;;;;;5111164;27;19924;-67
2023/06/27 07:44:51;;;;;;;;;;;;;;;;;;5118668;27;19916;-67
2023/06/27 07:49:24;;;;;;;;;;;;;;;;;;5172996;27;19919;-66
2023/06/27 07:51:51;;;;;;;;;;;;;;;;;;5172858;27;19911;-66
2023/06/27 07:54:17;;;;;;;;;;;;;;;;;;5164121;27;19915;-66
2023/06/27 07:56:43;;;;;;;;;;;;;;;;;;5152102;27;20294;-67
2023/06/27 07:59:11;;;;;;;;;;;;;;;;;;5151326;27;20005;-66
2023/06/27 08:01:37;;;;;;;;;;;;;;;;;;5155693;27;19990;-67
2023/06/27 08:04:03;;;;;;;;;;;;;;;;;;5172818;27;20298;-66
2023/06/27 08:06:28;;;;;;;;;;;;;;;;;;5168494;27;19922;-65
2023/06/27 08:08:54;;;;;;;;;;;;;;;;;;5158878;27;19919;-65
2023/06/27 08:11:21;;;;;;;;;;;;;;;;;;5162529;27;19911;-66
2023/06/27 08:13:47;;;;;;;;;;;;;;;;;;5170381;27;19918;-66
2023/06/27 08:18:43;;;;;;;;;;;;;;;;;;5109062;27;19920;-65
2023/06/27 08:21:09;;;;;;;;;;;;;;;;;;5109561;28;19973;-66
2023/06/27 08:26:20;;;;;;;;;;;;;;;;;;5088028;28;20284;-64
2023/06/27 08:31:13;;;;;;;;;;;;;;;;;;5110265;27;20366;-66
2023/06/27 08:33:39;;;;;;;;;;;;;;;;;;5110630;28;19922;-66
2023/06/27 08:36:05;;;;;;;;;;;;;;;;;;5110899;28;19912;-66
2023/06/27 08:38:31;;;;;;;;;;;;;;;;;;5110556;28;19965;-67
2023/06/27 08:40:57;;;;;;;;;;;;;;;;;;5123576;28;19912;-66
2023/06/27 08:45:08;;;;;;;;;;;;;;;;;;5105439;27;19946;-65
2023/06/27 08:48:51;;;;;;;;;;;;;;;;;;5089540;27;20473;-66
2023/06/27 08:51:18;;;;;;;;;;;;;;;;;;5069405;28;20008;-65
2023/06/27 08:54:34;;;;;;;;;;;;;;;;;;5087119;27;19926;-66
2023/06/27 08:57:00;;;;;;;;;;;;;;;;;;5089135;28;20015;-67
2023/06/27 08:59:26;;;;;;;;;;;;;;;;;;5089355;28;20003;-66
2023/06/27 09:01:52;;;;;;;;;;;;;;;;;;5088224;28;19916;-65
2023/06/27 09:04:19;;;;;;;;;;;;;;;;;;5089625;28;19995;-66
2023/06/27 09:06:46;;;;;;;;;;;;;;;;;;5089999;28;19908;-66
2023/06/27 09:09:14;;;;;;;;;;;;;;;;;;5086333;28;19958;-66
2023/06/27 09:11:40;;;;;;;;;;;;;;;;;;5089153;28;19969;-66
2023/06/27 09:14:06;;;;;;;;;;;;;;;;;;5089659;28;20373;-65
2023/06/27 09:16:32;;;;;;;;;;;;;;;;;;5089712;28;20369;-65
2023/06/27 09:18:58;;;;;;;;;;;;;;;;;;5089519;28;19916;-66
2023/06/27 09:21:24;;;;;;;;;;;;;;;;;;5088438;28;19912;-67
2023/06/27 09:23:50;;;;;;;;;;;;;;;;;;5087960;28;20317;-67
2023/06/27 09:26:16;;;;;;;;;;;;;;;;;;5087809;28;20308;-67
2023/06/27 09:28:42;;;;;;;;;;;;;;;;;;5087611;28;19920;-66
2023/06/27 09:31:08;;;;;;;;;;;;;;;;;;5086425;28;19912;-66
2023/06/27 09:33:34;;;;;;;;;;;;;;;;;;5086325;28;20018;-67
2023/06/27 09:36:00;;;;;;;;;;;;;;;;;;5086526;28;19909;-66
2023/06/27 09:38:26;;;;;;;;;;;;;;;;;;5090398;28;19912;-66
2023/06/27 09:40:52;;;;;;;;;;;;;;;;;;5088114;28;19913;-66
2023/06/27 09:43:18;;;;;;;;;;;;;;;;;;5098698;28;19919;-67
2023/06/27 09:47:04;;;;;;;;;;;;;;;;;;5089207;27;19925;-66
2023/06/27 09:49:30;;;;;;;;;;;;;;;;;;5089897;28;20380;-67
2023/06/27 09:51:56;;;;;;;;;;;;;;;;;;5088885;28;19958;-67
2023/06/27 09:54:22;;;;;;;;;;;;;;;;;;5089722;28;20378;-66
2023/06/27 09:56:50;;;;;;;;;;;;;;;;;;5090579;28;19943;-66
2023/06/27 09:59:15;;;;;;;;;;;;;;;;;;5089980;28;19951;-67
2023/06/27 10:01:41;;;;;;;;;;;;;;;;;;5086027;28;20010;-66
2023/06/27 10:04:07;;;;;;;;;;;;;;;;;;5092829;28;20229;-67
2023/06/27 10:06:33;;;;;;;;;;;;;;;;;;5089689;28;19920;-67
2023/06/27 10:08:59;;;;;;;;;;;;;;;;;;5089734;28;20316;-66
2023/06/27 10:11:25;;;;;;;;;;;;;;;;;;5088409;28;19909;-67
2023/06/27 10:13:51;;;;;;;;;;;;;;;;;;5087467;28;19924;-67
2023/06/27 10:16:17;;;;;;;;;;;;;;;;;;5089055;28;20396;-68
2023/06/27 10:18:43;;;;;;;;;;;;;;;;;;5088177;28;19913;-67
2023/06/27 10:21:09;;;;;;;;;;;;;;;;;;5087374;28;19958;-67
2023/06/27 10:23:35;;;;;;;;;;;;;;;;;;5087315;28;19916;-68
2023/06/27 10:28:02;;;;;;;;;;;;;;;;;;5141235;27;19946;-66
2023/06/27 10:30:29;;;;;;;;;;;;;;;;;;5112747;28;20363;-67
2023/06/27 10:32:55;;;;;;;;;;;;;;;;;;5127742;28;19919;-66
2023/06/27 10:35:21;;;;;;;;;;;;;;;;;;5129877;28;20422;-66
2023/06/27 10:37:47;;;;;;;;;;;;;;;;;;5130838;28;19979;-66
2023/06/27 10:40:13;;;;;;;;;;;;;;;;;;5130427;28;19912;-67
2023/06/27 10:42:39;;;;;;;;;;;;;;;;;;5129964;28;20488;-66
2023/06/27 10:45:05;;;;;;;;;;;;;;;;;;5131429;28;20415;-67
2023/06/27 10:47:34;;;;;;;;;;;;;;;;;;5131583;28;19916;-67
2023/06/27 10:50:00;;;;;;;;;;;;;;;;;;5128855;28;19955;-66
2023/06/27 10:52:51;;;;;;;;;;;;;;;;;;5111137;27;19926;-66
2023/06/27 10:55:18;;;;;;;;;;;;;;;;;;5106529;28;20368;-66
2023/06/27 10:57:44;;;;;;;;;;;;;;;;;;5091722;28;19912;-66
2023/06/27 11:00:10;;;;;;;;;;;;;;;;;;5101997;28;20262;-66
2023/06/27 11:02:36;;;;;;;;;;;;;;;;;;5094889;28;20364;-67
2023/06/27 11:05:02;;;;;;;;;;;;;;;;;;5089347;28;19962;-65
2023/06/27 11:07:28;;;;;;;;;;;;;;;;;;5089381;28;20007;-65
2023/06/27 11:09:55;;;;;;;;;;;;;;;;;;5088944;28;19908;-67
2023/06/27 11:12:21;;;;;;;;;;;;;;;;;;5090171;28;19924;-67
2023/06/27 11:14:48;;;;;;;;;;;;;;;;;;5090600;28;20381;-66
2023/06/27 11:17:14;;;;;;;;;;;;;;;;;;5093538;28;19919;-67
2023/06/27 11:19:39;;;;;;;;;;;;;;;;;;5099008;28;19919;-66
2023/06/27 11:22:05;;;;;;;;;;;;;;;;;;5088178;28;19908;-65
2023/06/27 11:24:31;;;;;;;;;;;;;;;;;;5095544;28;19912;-66
2023/06/27 11:26:57;;;;;;;;;;;;;;;;;;5092490;28;20333;-66
2023/06/27 11:29:23;;;;;;;;;;;;;;;;;;5095908;28;20360;-66
2023/06/27 11:31:49;;;;;;;;;;;;;;;;;;5089471;28;19920;-65
2023/06/27 11:34:16;;;;;;;;;;;;;;;;;;5089432;28;19923;-66
2023/06/27 11:36:42;;;;;;;;;;;;;;;;;;5089624;28;19915;-66
2023/06/27 11:39:08;;;;;;;;;;;;;;;;;;5092011;28;19920;-66
2023/06/27 11:41:33;;;;;;;;;;;;;;;;;;5110115;28;19908;-65
2023/06/27 11:43:59;;;;;;;;;;;;;;;;;;5110482;28;19908;-66
2023/06/27 11:46:25;;;;;;;;;;;;;;;;;;5109715;28;19961;-66
2023/06/27 11:48:52;;;;;;;;;;;;;;;;;;5107932;28;20245;-66
2023/06/27 11:51:18;;;;;;;;;;;;;;;;;;5089691;28;20023;-66
2023/06/27 11:53:43;;;;;;;;;;;;;;;;;;5090548;28;19919;-67
2023/06/27 11:56:09;;;;;;;;;;;;;;;;;;5104998;28;19916;-65
2023/06/27 11:58:35;;;;;;;;;;;;;;;;;;5110068;28;19916;-66
2023/06/27 12:01:02;;;;;;;;;;;;;;;;;;5109479;28;19908;-66
2023/06/27 12:03:28;;;;;;;;;;;;;;;;;;5100219;28;20053;-65
2023/06/27 12:05:54;;;;;;;;;;;;;;;;;;5076444;28;20360;-66
2023/06/27 12:08:22;;;;;;;;;;;;;;;;;;5075380;28;19995;-65
2023/06/27 12:10:48;;;;;;;;;;;;;;;;;;5077120;28;20403;-65
2023/06/27 12:13:14;;;;;;;;;;;;;;;;;;5075293;28;19944;-66
2023/06/27 12:15:40;;;;;;;;;;;;;;;;;;5075968;28;19927;-66
2023/06/27 12:18:08;;;;;;;;;;;;;;;;;;5087712;28;19912;-65
2023/06/27 12:20:34;;;;;;;;;;;;;;;;;;5083264;28;19908;-67
2023/06/27 12:23:00;;;;;;;;;;;;;;;;;;5077602;28;20272;-69
2023/06/27 12:25:26;;;;;;;;;;;;;;;;;;5075679;28;20377;-69
2023/06/27 12:27:52;;;;;;;;;;;;;;;;;;5075401;28;20361;-70
2023/06/27 12:30:18;;;;;;;;;;;;;;;;;;5074781;28;20422;-70
2023/06/27 12:32:43;;;;;;;;;;;;;;;;;;5075437;28;20331;-70
2023/06/27 12:35:10;;;;;;;;;;;;;;;;;;5075170;28;19909;-71
2023/06/27 12:37:36;;;;;;;;;;;;;;;;;;5075719;28;19908;-71
2023/06/27 12:40:02;;;;;;;;;;;;;;;;;;5073405;28;19916;-70
2023/06/27 12:42:28;;;;;;;;;;;;;;;;;;5074673;28;19909;-70
2023/06/27 12:44:55;;;;;;;;;;;;;;;;;;5075830;28;19908;-70
2023/06/27 12:47:21;;;;;;;;;;;;;;;;;;5075758;28;19913;-70
2023/06/27 12:49:47;;;;;;;;;;;;;;;;;;5074792;28;20399;-69
2023/06/27 12:52:13;;;;;;;;;;;;;;;;;;5074028;28;20250;-69
2023/06/27 12:54:39;;;;;;;;;;;;;;;;;;5074585;28;20325;-70
2023/06/27 12:57:05;;;;;;;;;;;;;;;;;;5074944;28;20331;-69
2023/06/27 12:59:31;;;;;;;;;;;;;;;;;;5075564;28;20277;-69
2023/06/27 13:01:57;;;;;;;;;;;;;;;;;;5074222;28;20284;-69
2023/06/27 13:04:23;;;;;;;;;;;;;;;;;;5074923;28;20365;-69
2023/06/27 13:06:49;;;;;;;;;;;;;;;;;;5075400;28;19909;-69
2023/06/27 13:09:15;;;;;;;;;;;;;;;;;;5075352;28;19962;-70
2023/06/27 13:11:42;;;;;;;;;;;;;;;;;;5073873;28;19917;-69
2023/06/27 13:14:08;;;;;;;;;;;;;;;;;;5074579;28;19908;-70
2023/06/27 13:16:34;;;;;;;;;;;;;;;;;;5074653;28;19909;-70
2023/06/27 13:19:02;;;;;;;;;;;;;;;;;;5075187;28;19908;-69
2023/06/27 13:21:28;;;;;;;;;;;;;;;;;;5073865;28;20433;-70
2023/06/27 13:23:54;;;;;;;;;;;;;;;;;;5074705;28;19912;-70
2023/06/27 13:26:20;;;;;;;;;;;;;;;;;;5074965;28;19908;-70
2023/06/27 13:28:46;;;;;;;;;;;;;;;;;;5075023;28;20003;-71
2023/06/27 13:31:12;;;;;;;;;;;;;;;;;;5074499;28;20024;-69
2023/06/27 13:33:37;;;;;;;;;;;;;;;;;;5074945;28;19966;-69
2023/06/27 13:36:05;;;;;;;;;;;;;;;;;;5074819;28;19915;-70
2023/06/27 13:38:31;;;;;;;;;;;;;;;;;;5074306;28;19913;-70
2023/06/27 13:40:57;;;;;;;;;;;;;;;;;;5074644;28;20261;-69
2023/06/27 13:43:23;;;;;;;;;;;;;;;;;;5074551;28;19908;-70
2023/06/27 13:45:53;;;;;;;;;;;;;;;;;;5072968;28;19915;-69
2023/06/27 13:48:19;;;;;;;;;;;;;;;;;;5074504;28;19999;-70
2023/06/27 13:50:45;;;;;;;;;;;;;;;;;;5074301;28;20348;-71
2023/06/27 13:53:12;;;;;;;;;;;;;;;;;;5074252;28;20292;-70
2023/06/27 13:55:38;;;;;;;;;;;;;;;;;;5074604;28;20070;-70
2023/06/27 13:58:04;;;;;;;;;;;;;;;;;;5074773;28;20383;-70
2023/06/27 14:00:30;;;;;;;;;;;;;;;;;;5074061;28;20280;-70
2023/06/27 14:02:56;;;;;;;;;;;;;;;;;;5074279;28;20276;-71
2023/06/27 14:05:23;;;;;;;;;;;;;;;;;;5074365;28;19908;-69
2023/06/27 14:07:49;;;;;;;;;;;;;;;;;;5073917;28;19908;-70
2023/06/27 14:10:15;;;;;;;;;;;;;;;;;;5074139;28;20016;-70
2023/06/27 14:12:41;;;;;;;;;;;;;;;;;;5073721;28;19925;-71
2023/06/27 14:15:07;;;;;;;;;;;;;;;;;;5074081;28;19915;-69
2023/06/27 14:17:32;;;;;;;;;;;;;;;;;;5073972;28;19909;-71
2023/06/27 14:19:58;;;;;;;;;;;;;;;;;;5073599;28;19939;-70
2023/06/27 14:22:24;;;;;;;;;;;;;;;;;;5074071;28;19908;-70
2023/06/27 14:24:50;;;;;;;;;;;;;;;;;;5074045;28;19927;-70
2023/06/27 14:27:16;;;;;;;;;;;;;;;;;;5073279;28;19908;-70
2023/06/27 14:29:42;;;;;;;;;;;;;;;;;;5073939;28;20011;-71
2023/06/27 14:32:08;;;;;;;;;;;;;;;;;;5073888;28;20353;-70
2023/06/27 14:34:34;;;;;;;;;;;;;;;;;;5073462;28;19916;-71
2023/06/27 14:37:00;;;;;;;;;;;;;;;;;;5073745;28;19920;-70
2023/06/27 14:39:26;;;;;;;;;;;;;;;;;;5073754;28;19916;-70
2023/06/27 14:41:52;;;;;;;;;;;;;;;;;;5072111;28;19999;-70
2023/06/27 14:44:18;;;;;;;;;;;;;;;;;;5072474;28;20021;-70
2023/06/27 14:46:44;;;;;;;;;;;;;;;;;;5073775;28;20381;-70
2023/06/27 14:49:10;;;;;;;;;;;;;;;;;;5073417;28;20386;-70
2023/06/27 14:51:36;;;;;;;;;;;;;;;;;;5073549;28;20297;-70
2023/06/27 14:54:02;;;;;;;;;;;;;;;;;;5073616;28;19914;-70
2023/06/27 14:56:28;;;;;;;;;;;;;;;;;;5073280;28;19958;-69
2023/06/27 14:58:54;;;;;;;;;;;;;;;;;;5073868;28;19909;-70
2023/06/27 15:01:24;;;;;;;;;;;;;;;;;;5073846;28;20408;-69
2023/06/27 15:03:50;;;;;;;;;;;;;;;;;;5073359;28;20203;-70
2023/06/27 15:06:16;;;;;;;;;;;;;;;;;;5073647;28;19922;-70
2023/06/27 15:08:43;;;;;;;;;;;;;;;;;;5073503;28;19909;-70
2023/06/27 15:11:09;;;;;;;;;;;;;;;;;;5072923;28;19970;-70
2023/06/27 15:13:35;;;;;;;;;;;;;;;;;;5072115;28;19908;-70
2023/06/27 15:16:01;;;;;;;;;;;;;;;;;;5073029;28;20002;-70
2023/06/27 15:18:27;;;;;;;;;;;;;;;;;;5073442;28;20450;-70
2023/06/27 15:20:52;;;;;;;;;;;;;;;;;;5073550;28;20383;-70
2023/06/27 15:23:18;;;;;;;;;;;;;;;;;;5071719;28;19916;-71
2023/06/27 15:25:44;;;;;;;;;;;;;;;;;;5073693;28;19915;-70
2023/06/27 15:28:10;;;;;;;;;;;;;;;;;;5073084;28;20012;-69
2023/06/27 15:30:36;;;;;;;;;;;;;;;;;;5072743;28;19909;-72
2023/06/27 15:33:02;;;;;;;;;;;;;;;;;;5073347;28;20018;-69
2023/06/27 15:35:28;;;;;;;;;;;;;;;;;;5073357;28;20388;-69
2023/06/27 15:37:54;;;;;;;;;;;;;;;;;;5073831;28;20364;-69
2023/06/27 15:40:20;;;;;;;;;;;;;;;;;;5076962;28;19909;-69
2023/06/27 15:42:46;;;;;;;;;;;;;;;;;;5076873;28;19915;-70
2023/06/27 15:45:12;;;;;;;;;;;;;;;;;;5076347;28;19962;-70
2023/06/27 15:47:38;;;;;;;;;;;;;;;;;;5076757;28;19966;-70
2023/06/27 15:50:05;;;;;;;;;;;;;;;;;;5075485;28;20014;-70
2023/06/27 15:52:31;;;;;;;;;;;;;;;;;;5076250;28;19924;-70
2023/06/27 15:55:00;;;;;;;;;;;;;;;;;;5076872;28;19954;-70
2023/06/27 15:57:26;;;;;;;;;;;;;;;;;;5076724;28;20372;-70
2023/06/27 15:59:52;;;;;;;;;;;;;;;;;;5076325;28;19908;-70
2023/06/27 16:02:18;;;;;;;;;;;;;;;;;;5076672;28;19915;-70
2023/06/27 16:04:44;;;;;;;;;;;;;;;;;;5076547;28;19962;-70
2023/06/27 16:07:10;;;;;;;;;;;;;;;;;;5076112;28;19962;-70
2023/06/27 16:09:36;;;;;;;;;;;;;;;;;;5076450;28;19999;-70
2023/06/27 16:12:02;;;;;;;;;;;;;;;;;;5076390;28;19916;-70
2023/06/27 16:14:28;;;;;;;;;;;;;;;;;;5075957;28;19912;-70
2023/06/27 16:16:54;;;;;;;;;;;;;;;;;;5075538;28;19954;-69
2023/06/27 16:19:20;;;;;;;;;;;;;;;;;;5076454;28;19916;-70
2023/06/27 16:21:46;;;;;;;;;;;;;;;;;;5075026;28;19909;-69
2023/06/27 16:24:12;;;;;;;;;;;;;;;;;;5076450;28;19915;-69
2023/06/27 16:26:38;;;;;;;;;;;;;;;;;;5075791;28;20353;-70
2023/06/27 16:29:04;;;;;;;;;;;;;;;;;;5076451;28;20364;-70
2023/06/27 16:31:29;;;;;;;;;;;;;;;;;;5075940;28;19917;-70
2023/06/27 16:33:55;;;;;;;;;;;;;;;;;;5075845;28;19999;-70
2023/06/27 16:36:22;;;;;;;;;;;;;;;;;;5075969;28;20383;-69
2023/06/27 16:38:48;;;;;;;;;;;;;;;;;;5075923;28;20258;-70
2023/06/27 16:41:14;;;;;;;;;;;;;;;;;;5075473;28;19916;-70
2023/06/27 16:43:40;;;;;;;;;;;;;;;;;;5075785;28;19908;-70
2023/06/27 16:46:07;;;;;;;;;;;;;;;;;;5075790;28;19913;-69
2023/06/27 16:48:33;;;;;;;;;;;;;;;;;;5075281;28;19908;-69
2023/06/27 16:50:58;;;;;;;;;;;;;;;;;;5075407;28;19920;-70
2023/06/27 16:53:24;;;;;;;;;;;;;;;;;;5075618;28;19944;-69
2023/06/27 16:55:50;;;;;;;;;;;;;;;;;;5075146;28;19913;-70
2023/06/27 16:58:16;;;;;;;;;;;;;;;;;;5075568;28;20273;-70
2023/06/27 17:00:42;;;;;;;;;;;;;;;;;;5075448;28;19915;-69
2023/06/27 17:03:08;;;;;;;;;;;;;;;;;;5075016;28;19915;-70
2023/06/27 17:05:34;;;;;;;;;;;;;;;;;;5075503;28;19908;-70
2023/06/27 17:08:00;;;;;;;;;;;;;;;;;;5074117;28;20419;-70
2023/06/27 17:10:26;;;;;;;;;;;;;;;;;;5074839;28;19916;-70
2023/06/27 17:12:52;;;;;;;;;;;;;;;;;;5075157;28;19923;-70
2023/06/27 17:15:18;;;;;;;;;;;;;;;;;;5075156;28;19995;-70
2023/06/27 17:17:44;;;;;;;;;;;;;;;;;;5074778;28;20326;-70
2023/06/27 17:20:10;;;;;;;;;;;;;;;;;;5075061;28;19909;-70
2023/06/27 17:22:37;;;;;;;;;;;;;;;;;;5074830;28;19909;-70
2023/06/27 17:25:03;;;;;;;;;;;;;;;;;;5075289;28;19999;-69
2023/06/27 17:27:29;;;;;;;;;;;;;;;;;;5074853;28;19954;-69
2023/06/27 17:29:55;;;;;;;;;;;;;;;;;;5074495;28;19912;-69
2023/06/27 17:32:22;;;;;;;;;;;;;;;;;;5074684;28;19920;-69
2023/06/27 17:34:48;;;;;;;;;;;;;;;;;;5074832;28;20286;-69
2023/06/27 17:37:14;;;;;;;;;;;;;;;;;;5073056;28;19909;-69
2023/06/27 17:39:40;;;;;;;;;;;;;;;;;;5074536;28;20007;-70
2023/06/27 17:42:06;;;;;;;;;;;;;;;;;;5072610;28;19912;-70
2023/06/27 17:44:32;;;;;;;;;;;;;;;;;;5072093;28;19999;-69
2023/06/27 17:47:51;;;;;;;;;;;;;;;;;;5091658;27;20300;-70
2023/06/27 17:50:17;;;;;;;;;;;;;;;;;;5090059;28;20331;-70
2023/06/27 17:52:43;;;;;;;;;;;;;;;;;;5090853;28;19908;-70
2023/06/27 17:55:09;;;;;;;;;;;;;;;;;;5091436;28;19915;-70
2023/06/27 17:57:35;;;;;;;;;;;;;;;;;;5090016;28;20288;-69
2023/06/27 18:00:01;;;;;;;;;;;;;;;;;;5089588;28;19908;-70
2023/06/27 18:02:27;;;;;;;;;;;;;;;;;;5089276;28;20351;-70
2023/06/27 18:04:53;;;;;;;;;;;;;;;;;;5089113;28;19956;-70
2023/06/27 18:07:19;;;;;;;;;;;;;;;;;;5090177;28;20011;-70
2023/06/27 18:11:46;;;;;;;;;;;;;;;;;;5090559;27;19919;-70
2023/06/27 18:14:12;;;;;;;;;;;;;;;;;;5091024;28;20003;-70
2023/06/27 18:18:56;;;;;;;;;;;;;;;;;;5091496;27;20284;-70
2023/06/27 18:21:22;;;;;;;;;;;;;;;;;;5091355;28;19994;-70
2023/06/27 18:23:48;;;;;;;;;;;;;;;;;;5091529;28;19950;-70
2023/06/27 18:26:14;;;;;;;;;;;;;;;;;;5091193;28;19912;-70
2023/06/27 18:28:57;;;;;;;;;;;;;;;;;;5091997;28;19918;-70
2023/06/27 18:31:23;;;;;;;;;;;;;;;;;;5091086;28;19913;-69
2023/06/27 18:33:51;;;;;;;;;;;;;;;;;;5090901;28;19954;-69
2023/06/27 18:36:17;;;;;;;;;;;;;;;;;;5091133;28;19948;-70
2023/06/27 18:38:43;;;;;;;;;;;;;;;;;;5091129;28;19912;-70
2023/06/27 18:42:54;;;;;;;;;;;;;;;;;;5152949;27;20338;-70
2023/06/27 18:45:29;;;;;;;;;;;;;;;;;;5132392;27;19922;-70
2023/06/27 18:47:55;;;;;;;;;;;;;;;;;;5131941;28;20002;-70
2023/06/27 18:50:22;;;;;;;;;;;;;;;;;;5132100;28;19907;-70
2023/06/27 18:52:48;;;;;;;;;;;;;;;;;;5132135;28;19994;-70
2023/06/27 18:57:45;;;;;;;;;;;;;;;;;;5091335;27;20376;-68
2023/06/27 19:00:11;;;;;;;;;;;;;;;;;;5091409;28;20000;-68
2023/06/27 19:02:37;;;;;;;;;;;;;;;;;;5090856;28;19943;-68
2023/06/27 19:05:16;;;;;;;;;;;;;;;;;;5111894;27;19913;-69
2023/06/27 19:08:23;;;;;;;;;;;;;;;;;;5091247;27;19916;-68
2023/06/27 19:10:49;;;;;;;;;;;;;;;;;;5089975;28;20455;-69
2023/06/27 19:13:16;;;;;;;;;;;;;;;;;;5090034;28;19909;-69
2023/06/27 19:15:42;;;;;;;;;;;;;;;;;;5090916;28;20337;-70
2023/06/27 19:20:18;;;;;;;;;;;;;;;;;;5111964;27;19916;-70
2023/06/27 19:22:44;;;;;;;;;;;;;;;;;;5110078;28;20015;-70